createdAt,value
2023-03-20T00:01:11.931Z,20.30
2023-03-20T00:03:38.373Z,19.50
2023-03-20T00:06:04.875Z,20.90
2023-03-20T00:08:32.325Z,21.63
2023-03-20T00:10:58.852Z,21.00
2023-03-20T00:13:28.101Z,20.10
2023-03-20T00:15:54.877Z,21.30
2023-03-20T00:18:23.178Z,22.37
2023-03-20T00:20:51.097Z,20.27
2023-03-20T00:23:17.715Z,20.70
2023-03-20T00:25:45.414Z,20.47
2023-03-20T00:28:28.622Z,19.60
2023-03-20T00:30:55.106Z,21.03
2023-03-20T00:33:22.905Z,21.50
2023-03-20T00:35:49.787Z,20.30
2023-03-20T00:38:16.209Z,21.40
2023-03-20T00:40:42.623Z,21.33
2023-03-20T00:43:12.997Z,20.07
2023-03-20T00:45:39.717Z,19.43
2023-03-20T00:48:13.014Z,19.30
2023-03-20T00:50:39.888Z,18.80
2023-03-20T00:53:06.456Z,20.40
2023-03-20T00:55:33.020Z,19.37
2023-03-20T00:58:00.817Z,21.30
2023-03-20T01:00:27.714Z,20.47
2023-03-20T01:02:55.329Z,18.30
2023-03-20T01:05:24.509Z,19.10
2023-03-20T01:07:53.585Z,20.30
2023-03-20T01:10:23.458Z,20.23
2023-03-20T01:12:50.286Z,18.83
2023-03-20T01:15:25.362Z,18.87
2023-03-20T01:17:53.101Z,20.33
2023-03-20T01:20:27.712Z,19.20
2023-03-20T01:22:54.530Z,20.83
2023-03-20T01:25:21.316Z,20.43
2023-03-20T01:27:52.442Z,22.90
2023-03-20T01:30:21.131Z,19.77
2023-03-20T01:32:48.341Z,20.10
2023-03-20T01:35:16.721Z,19.67
2023-03-20T01:37:43.797Z,22.50
2023-03-20T01:40:32.120Z,20.40
2023-03-20T01:42:58.668Z,22.03
2023-03-20T01:45:31.487Z,21.07
2023-03-20T01:47:59.773Z,20.20
2023-03-20T01:50:31.742Z,20.40
2023-03-20T01:53:06.728Z,19.93
2023-03-20T01:55:37.084Z,21.73
2023-03-20T01:58:07.739Z,22.80
2023-03-20T02:00:34.897Z,20.00
2023-03-20T02:03:01.532Z,21.70
2023-03-20T02:05:55.091Z,21.37
2023-03-20T02:08:29.718Z,20.33
2023-03-20T02:11:01.238Z,20.23
2023-03-20T02:13:31.035Z,21.10
2023-03-20T02:16:07.278Z,19.17
2023-03-20T02:18:58.129Z,19.53
2023-03-20T02:21:46.738Z,18.90
2023-03-20T02:24:26.900Z,19.90
2023-03-20T02:26:53.585Z,18.70
2023-03-20T02:29:32.321Z,20.13
2023-03-20T02:32:23.670Z,17.33
2023-03-20T02:35:08.845Z,17.07
2023-03-20T02:37:40.716Z,18.90
2023-03-20T02:40:17.222Z,17.80
2023-03-20T02:42:48.450Z,17.00
2023-03-20T02:45:22.973Z,15.97
2023-03-20T02:47:59.558Z,17.17
2023-03-20T02:50:36.593Z,16.93
2023-03-20T02:53:23.377Z,15.13
2023-03-20T02:55:52.915Z,13.67
2023-03-20T02:58:23.806Z,13.03
2023-03-20T03:01:17.915Z,13.00
2023-03-20T03:03:47.266Z,10.47
2023-03-20T03:06:18.667Z,9.60
2023-03-20T03:08:49.276Z,10.07
2023-03-20T03:11:15.692Z,9.10
2023-03-20T03:13:46.398Z,7.00
2023-03-20T03:16:16.307Z,7.77
2023-03-20T03:18:45.214Z,7.20
2023-03-20T03:21:13.966Z,6.93
2023-03-20T03:23:43.450Z,6.63
2023-03-20T03:26:14.487Z,5.63
2023-03-20T03:28:43.049Z,4.10
2023-03-20T03:31:15.281Z,4.97
2023-03-20T03:33:43.985Z,4.53
2023-03-20T03:36:22.794Z,3.70
2023-03-20T03:38:56.187Z,4.50
2023-03-20T03:41:29.600Z,3.70
2023-03-20T03:44:06.552Z,3.90
2023-03-20T03:46:39.298Z,3.77
2023-03-20T03:49:07.989Z,3.50
2023-03-20T03:51:36.696Z,3.80
2023-03-20T03:54:27.153Z,3.50
2023-03-20T03:57:31.600Z,3.20
2023-03-20T03:59:58.308Z,3.07
2023-03-20T04:02:24.813Z,3.10
2023-03-20T04:04:52.638Z,3.10
2023-03-20T04:07:20.542Z,3.13
2023-03-20T04:09:47.162Z,3.60
2023-03-20T04:12:33.729Z,3.47
2023-03-20T04:15:03.267Z,2.90
2023-03-20T04:17:31.544Z,3.63
2023-03-20T04:19:58.086Z,3.20
2023-03-20T04:22:24.499Z,2.90
2023-03-20T04:24:51.261Z,2.60
2023-03-20T04:27:18.298Z,3.10
2023-03-20T04:29:45.007Z,3.10
2023-03-20T04:32:46.673Z,4.03
2023-03-20T04:35:33.585Z,3.43
2023-03-20T04:38:05.235Z,3.10
2023-03-20T04:40:33.438Z,3.53
2023-03-20T04:42:59.882Z,3.40
2023-03-20T04:45:26.320Z,3.80
2023-03-20T04:47:52.935Z,3.40
2023-03-20T04:50:21.903Z,4.23
2023-03-20T04:52:50.292Z,3.50
2023-03-20T04:55:17.226Z,3.90
2023-03-20T04:57:43.901Z,3.90
2023-03-20T05:00:11.878Z,3.97
2023-03-20T05:02:38.311Z,3.43
2023-03-20T05:05:05.002Z,4.37
2023-03-20T05:07:34.752Z,3.57
2023-03-20T05:10:06.267Z,3.97
2023-03-20T05:12:42.190Z,4.70
2023-03-20T05:15:27.146Z,4.60
2023-03-20T05:18:12.297Z,4.83
2023-03-20T05:20:57.451Z,4.90
2023-03-20T05:23:46.697Z,5.10
2023-03-20T05:26:33.941Z,4.43
2023-03-20T05:29:18.917Z,3.70
2023-03-20T05:32:08.492Z,3.90
2023-03-20T05:34:55.347Z,4.80
2023-03-20T05:37:30.997Z,4.40
2023-03-20T05:40:14.817Z,4.80
2023-03-20T05:43:13.706Z,4.70
2023-03-20T05:46:12.265Z,4.43
2023-03-20T05:49:07.960Z,5.53
2023-03-20T05:51:53.059Z,5.60
2023-03-20T05:54:30.179Z,5.37
2023-03-20T05:57:06.966Z,5.90
2023-03-20T05:59:44.512Z,6.20
2023-03-20T06:02:29.376Z,6.40
2023-03-20T06:05:06.912Z,6.30
2023-03-20T06:07:42.332Z,8.30
2023-03-20T06:10:12.399Z,9.30
2023-03-20T06:12:39.219Z,10.50
2023-03-20T06:15:06.454Z,8.87
2023-03-20T06:17:36.759Z,10.00
2023-03-20T06:20:03.530Z,9.03
2023-03-20T06:22:30.629Z,10.23
2023-03-20T06:24:57.407Z,10.83
2023-03-20T06:27:31.224Z,9.90
2023-03-20T06:29:58.399Z,11.43
2023-03-20T06:32:31.072Z,9.83
2023-03-20T06:34:59.407Z,11.77
2023-03-20T06:37:26.021Z,11.10
2023-03-20T06:40:00.161Z,11.93
2023-03-20T06:42:26.740Z,11.80
2023-03-20T06:44:53.322Z,13.13
2023-03-20T06:47:38.993Z,12.70
2023-03-20T06:50:06.382Z,11.60
2023-03-20T06:52:33.661Z,12.67
2023-03-20T06:55:18.825Z,12.80
2023-03-20T06:57:45.388Z,14.27
2023-03-20T07:00:12.327Z,15.20
2023-03-20T07:02:38.747Z,14.43
2023-03-20T07:05:05.807Z,15.50
2023-03-20T07:07:33.041Z,16.17
2023-03-20T07:09:59.540Z,18.40
2023-03-20T07:12:28.558Z,18.07
2023-03-20T07:14:58.233Z,19.27
2023-03-20T07:17:24.707Z,18.00
2023-03-20T07:19:52.001Z,16.90
2023-03-20T07:22:21.535Z,17.50
2023-03-20T07:24:48.206Z,19.27
2023-03-20T07:27:15.383Z,18.13
2023-03-20T07:29:41.841Z,17.30
2023-03-20T07:32:12.753Z,18.57
2023-03-20T07:34:47.550Z,18.60
2023-03-20T07:37:14.018Z,17.47
2023-03-20T07:39:44.668Z,19.07
2023-03-20T07:42:37.209Z,18.10
2023-03-20T07:45:26.815Z,18.43
2023-03-20T07:47:55.724Z,19.37
2023-03-20T07:50:22.142Z,18.90
2023-03-20T07:52:49.349Z,17.67
2023-03-20T07:55:18.443Z,17.50
2023-03-20T07:57:45.365Z,16.57
2023-03-20T08:00:12.237Z,14.37
2023-03-20T08:02:39.101Z,13.73
2023-03-20T08:05:05.741Z,13.10
2023-03-20T08:07:32.308Z,13.60
2023-03-20T08:09:58.856Z,11.00
2023-03-20T08:12:25.309Z,8.87
2023-03-20T08:14:52.267Z,7.63
2023-03-20T08:17:21.184Z,7.40
2023-03-20T08:19:48.167Z,7.17
2023-03-20T08:22:14.562Z,6.67
2023-03-20T08:24:41.469Z,4.63
2023-03-20T08:27:08.049Z,6.00
2023-03-20T08:29:34.666Z,6.20
2023-03-20T08:32:01.813Z,5.93
2023-03-20T08:34:28.484Z,6.33
2023-03-20T08:36:55.143Z,6.60
2023-03-20T08:39:22.126Z,7.33
2023-03-20T08:41:49.646Z,7.53
2023-03-20T08:44:16.849Z,8.60
2023-03-20T08:46:44.784Z,9.50
2023-03-20T08:49:11.478Z,8.03
2023-03-20T08:51:37.918Z,9.50
2023-03-20T08:54:04.342Z,8.67
2023-03-20T08:56:31.223Z,9.40
2023-03-20T08:58:57.672Z,9.57
2023-03-20T09:01:28.406Z,9.40
2023-03-20T09:03:59.061Z,11.23
2023-03-20T09:06:25.895Z,11.23
2023-03-20T09:08:54.389Z,9.03
2023-03-20T09:11:20.801Z,9.37
2023-03-20T09:13:48.002Z,9.00
2023-03-20T09:16:15.279Z,9.00
2023-03-20T09:18:41.745Z,8.67
2023-03-20T09:21:08.163Z,8.77
2023-03-20T09:23:34.627Z,8.87
2023-03-20T09:26:01.129Z,9.00
2023-03-20T09:28:27.539Z,9.80
2023-03-20T09:30:57.303Z,8.93
2023-03-20T09:33:23.812Z,8.07
2023-03-20T09:35:51.061Z,14.37
2023-03-20T09:38:17.553Z,12.00
2023-03-20T09:40:49.823Z,10.47
2023-03-20T09:43:16.642Z,8.70
2023-03-20T09:46:01.300Z,9.33
2023-03-20T09:48:31.979Z,9.00
2023-03-20T09:51:04.220Z,8.33
2023-03-20T09:53:30.597Z,8.20
2023-03-20T09:55:57.364Z,8.80
2023-03-20T09:58:27.865Z,8.83
2023-03-20T10:00:56.804Z,9.10
2023-03-20T10:03:29.575Z,8.20
2023-03-20T10:05:59.188Z,10.07
2023-03-20T10:08:44.585Z,9.77
2023-03-20T10:11:15.779Z,10.07
2023-03-20T10:13:53.744Z,14.67
2023-03-20T10:16:41.060Z,13.10
2023-03-20T10:19:21.234Z,9.60
2023-03-20T10:21:49.466Z,10.50
2023-03-20T10:24:25.064Z,10.37
2023-03-20T10:26:52.775Z,10.23
2023-03-20T10:29:25.567Z,9.00
2023-03-20T10:32:01.354Z,8.40
2023-03-20T10:34:38.669Z,8.67
2023-03-20T10:37:27.838Z,8.57
2023-03-20T10:40:08.442Z,7.03
2023-03-20T10:42:38.779Z,6.87
2023-03-20T10:45:15.362Z,6.30
2023-03-20T10:47:43.387Z,5.90
2023-03-20T10:50:21.328Z,5.57
2023-03-20T10:52:49.788Z,5.90
2023-03-20T10:55:18.345Z,5.50
2023-03-20T10:57:48.252Z,5.70
2023-03-20T11:00:19.937Z,5.20
2023-03-20T11:02:47.270Z,5.23
2023-03-20T11:05:22.967Z,4.80
2023-03-20T11:07:51.696Z,5.40
2023-03-20T11:10:18.391Z,4.93
2023-03-20T11:12:48.724Z,5.20
2023-03-20T11:15:23.440Z,4.50
2023-03-20T11:17:53.181Z,5.30
2023-03-20T11:20:19.581Z,4.10
2023-03-20T11:22:47.657Z,4.50
2023-03-20T11:25:46.894Z,4.10
2023-03-20T11:28:32.091Z,4.40
2023-03-20T11:31:16.754Z,4.73
2023-03-20T11:33:44.890Z,4.37
2023-03-20T11:36:19.622Z,4.20
2023-03-20T11:38:46.336Z,3.77
2023-03-20T11:41:22.505Z,4.20
2023-03-20T11:43:49.201Z,4.00
2023-03-20T11:46:15.938Z,5.00
2023-03-20T11:48:45.425Z,4.10
2023-03-20T11:51:16.764Z,3.63
2023-03-20T11:53:49.077Z,3.40
2023-03-20T11:56:29.318Z,3.30
2023-03-20T11:58:57.690Z,3.60
2023-03-20T12:01:25.308Z,4.23
2023-03-20T12:03:57.642Z,3.57
2023-03-20T12:06:27.657Z,3.97
2023-03-20T12:09:00.791Z,3.83
2023-03-20T12:11:46.502Z,3.30
2023-03-20T12:14:19.062Z,4.63
2023-03-20T12:16:46.534Z,4.27
2023-03-20T12:19:18.483Z,3.70
2023-03-20T12:21:48.537Z,3.73
2023-03-20T12:24:36.939Z,4.13
2023-03-20T12:27:14.304Z,3.97
2023-03-20T12:29:45.322Z,3.97
2023-03-20T12:32:28.042Z,3.60
2023-03-20T12:34:56.282Z,4.10
2023-03-20T12:37:22.777Z,4.40
2023-03-20T12:39:54.656Z,3.93
2023-03-20T12:42:24.581Z,4.47
2023-03-20T12:44:53.920Z,4.73
2023-03-20T12:47:33.013Z,3.70
2023-03-20T12:50:24.847Z,4.33
2023-03-20T12:52:51.281Z,3.97
2023-03-20T12:55:18.039Z,3.33
2023-03-20T12:58:03.190Z,3.73
2023-03-20T13:00:36.610Z,3.27
2023-03-20T13:03:03.791Z,4.40
2023-03-20T13:05:35.215Z,3.33
2023-03-20T13:08:20.989Z,4.07
2023-03-20T13:11:16.986Z,3.60
2023-03-20T13:13:48.874Z,3.60
2023-03-20T13:16:24.597Z,3.90
2023-03-20T13:19:09.652Z,4.00
2023-03-20T13:21:40.166Z,3.73
2023-03-20T13:24:20.273Z,3.70
2023-03-20T13:27:00.968Z,3.90
2023-03-20T13:29:30.545Z,3.50
2023-03-20T13:32:00.121Z,3.53
2023-03-20T13:34:45.163Z,3.37
2023-03-20T13:37:27.045Z,3.70
2023-03-20T13:40:12.165Z,4.00
2023-03-20T13:42:42.054Z,3.70
2023-03-20T13:45:21.880Z,3.90
2023-03-20T13:47:49.579Z,3.93
2023-03-20T13:50:27.746Z,3.70
2023-03-20T13:53:08.851Z,3.40
2023-03-20T13:55:43.425Z,3.83
2023-03-20T13:58:15.816Z,3.73
2023-03-20T14:00:53.680Z,3.93
2023-03-20T14:03:32.092Z,3.70
2023-03-20T14:05:58.684Z,4.20
2023-03-20T14:08:28.167Z,3.87
2023-03-20T14:10:55.922Z,3.70
2023-03-20T14:13:23.509Z,4.20
2023-03-20T14:15:54.321Z,3.80
2023-03-20T14:18:22.874Z,3.73
2023-03-20T14:20:53.916Z,3.60
2023-03-20T14:23:25.654Z,4.23
2023-03-20T14:25:54.075Z,3.70
2023-03-20T14:28:20.727Z,3.20
2023-03-20T14:30:49.957Z,4.20
2023-03-20T14:33:16.483Z,3.50
2023-03-20T14:35:45.528Z,3.50
2023-03-20T14:38:18.086Z,3.97
2023-03-20T14:41:07.706Z,3.73
2023-03-20T14:43:48.584Z,4.23
2023-03-20T14:46:24.390Z,3.97
2023-03-20T14:48:53.489Z,3.30
2023-03-20T14:51:19.865Z,3.50
2023-03-20T14:53:56.977Z,3.40
2023-03-20T14:56:31.580Z,3.27
2023-03-20T14:59:04.801Z,3.90
2023-03-20T15:01:48.824Z,3.40
2023-03-20T15:04:26.336Z,3.87
2023-03-20T15:06:57.732Z,3.40
2023-03-20T15:09:25.358Z,3.20
2023-03-20T15:11:52.639Z,3.57
2023-03-20T15:14:22.155Z,4.03
2023-03-20T15:16:49.156Z,3.77
2023-03-20T15:19:19.532Z,3.37
2023-03-20T15:21:47.989Z,3.50
2023-03-20T15:24:21.528Z,3.23
2023-03-20T15:26:50.800Z,3.03
2023-03-20T15:29:18.819Z,3.33
2023-03-20T15:31:46.331Z,3.93
2023-03-20T15:34:16.992Z,3.63
2023-03-20T15:36:43.510Z,3.57
2023-03-20T15:39:13.400Z,3.40
2023-03-20T15:41:39.864Z,4.30
2023-03-20T15:44:17.324Z,3.23
2023-03-20T15:46:50.768Z,3.10
2023-03-20T15:49:17.854Z,3.00
2023-03-20T15:51:44.935Z,3.80
2023-03-20T15:54:14.129Z,3.00
2023-03-20T15:56:43.089Z,3.03
2023-03-20T15:59:12.942Z,3.30
2023-03-20T16:01:39.657Z,3.40
2023-03-20T16:04:06.172Z,3.60
2023-03-20T16:06:32.662Z,4.17
2023-03-20T16:09:00.751Z,3.70
2023-03-20T16:11:35.451Z,3.00
2023-03-20T16:14:02.106Z,2.50
2023-03-20T16:16:30.136Z,2.90
2023-03-20T16:18:59.240Z,3.27
2023-03-20T16:21:30.350Z,3.00
2023-03-20T16:23:57.622Z,2.10
2023-03-20T16:26:24.886Z,3.20
2023-03-20T16:28:53.452Z,2.50
2023-03-20T16:31:28.404Z,3.23
2023-03-20T16:33:59.135Z,2.83
2023-03-20T16:36:30.521Z,3.40
2023-03-20T16:38:58.825Z,3.50
2023-03-20T16:41:29.092Z,3.00
2023-03-20T16:43:59.111Z,2.63
2023-03-20T16:46:26.840Z,3.53
2023-03-20T16:49:19.132Z,3.10
2023-03-20T16:51:46.366Z,3.77
2023-03-20T16:54:19.061Z,3.97
2023-03-20T16:56:51.242Z,3.10
2023-03-20T16:59:18.841Z,3.50
2023-03-20T17:01:48.209Z,3.20
2023-03-20T17:04:22.275Z,3.53
2023-03-20T17:06:49.984Z,2.97
2023-03-20T17:09:17.143Z,3.13
2023-03-20T17:11:49.129Z,2.50
2023-03-20T17:14:15.818Z,2.73
2023-03-20T17:16:43.943Z,2.60
2023-03-20T17:19:14.548Z,2.60
2023-03-20T17:21:41.174Z,3.10
2023-03-20T17:24:07.800Z,3.53
2023-03-20T17:26:34.634Z,4.27
2023-03-20T17:29:01.240Z,3.73
2023-03-20T17:31:28.458Z,2.43
2023-03-20T17:33:54.973Z,3.53
2023-03-20T17:36:25.766Z,4.23
2023-03-20T17:38:52.535Z,3.10
2023-03-20T17:41:19.856Z,2.87
2023-03-20T17:43:47.115Z,3.87
2023-03-20T17:46:16.578Z,3.17
2023-03-20T17:48:43.044Z,2.60
2023-03-20T17:51:09.750Z,3.10
2023-03-20T17:53:36.740Z,3.03
2023-03-20T17:56:03.603Z,3.57
2023-03-20T17:58:30.755Z,3.63
2023-03-20T18:00:57.380Z,3.10
2023-03-20T18:03:23.825Z,3.23
2023-03-20T18:05:51.173Z,3.40
2023-03-20T18:08:23.023Z,3.17
2023-03-20T18:10:51.712Z,3.20
2023-03-20T18:13:22.364Z,3.70
2023-03-20T18:15:53.491Z,2.90
2023-03-20T18:18:23.778Z,2.73
2023-03-20T18:20:52.457Z,3.20
2023-03-20T18:23:18.862Z,2.57
2023-03-20T18:25:45.359Z,3.20
2023-03-20T18:28:18.333Z,3.23
2023-03-20T18:30:45.206Z,4.10
2023-03-20T18:33:13.919Z,3.20
2023-03-20T18:35:40.530Z,3.70
2023-03-20T18:38:10.321Z,3.23
2023-03-20T18:40:37.599Z,6.20
2023-03-20T18:43:04.760Z,9.00
2023-03-20T18:45:32.089Z,5.20
2023-03-20T18:47:58.815Z,4.47
2023-03-20T18:50:29.024Z,4.47
2023-03-20T18:52:56.822Z,3.37
2023-03-20T18:55:24.296Z,3.50
2023-03-20T18:57:52.126Z,3.80
2023-03-20T19:00:45.177Z,3.70
2023-03-20T19:03:11.700Z,4.00
2023-03-20T19:05:38.951Z,3.60
2023-03-20T19:08:05.820Z,3.63
2023-03-20T19:10:37.444Z,3.97
2023-03-20T19:13:05.328Z,4.20
2023-03-20T19:15:36.331Z,4.13
2023-03-20T19:18:04.215Z,4.60
2023-03-20T19:20:38.275Z,4.67
2023-03-20T19:23:06.262Z,5.20
2023-03-20T19:25:33.296Z,5.20
2023-03-20T19:28:00.547Z,4.67
2023-03-20T19:30:35.079Z,4.00
2023-03-20T19:33:02.489Z,4.07
2023-03-20T19:38:20.424Z,3.77
2023-03-20T19:40:48.391Z,4.20
2023-03-20T19:43:15.649Z,4.10
2023-03-20T19:45:43.227Z,4.30
2023-03-20T19:48:14.347Z,4.53
2023-03-20T19:50:43.773Z,4.20
2023-03-20T19:53:11.518Z,3.97
2023-03-20T19:55:38.537Z,5.47
2023-03-20T19:58:05.614Z,4.80
2023-03-20T20:00:56.821Z,4.83
2023-03-20T20:03:24.169Z,5.17
2023-03-20T20:05:52.829Z,5.50
2023-03-20T20:08:30.016Z,4.80
2023-03-20T20:11:06.297Z,5.50
2023-03-20T20:13:34.228Z,7.50
2023-03-20T20:16:00.852Z,7.80
2023-03-20T20:18:28.429Z,6.90
2023-03-20T20:22:02.427Z,8.10
2023-03-20T20:23:44.101Z,9.40
2023-03-20T20:26:11.313Z,11.10
2023-03-20T20:28:38.131Z,10.90
2023-03-20T20:31:05.006Z,10.83
2023-03-20T20:33:34.468Z,13.80
2023-03-20T20:38:54.249Z,14.53
2023-03-20T20:41:21.964Z,17.00
2023-03-20T20:44:14.719Z,15.70
2023-03-20T20:46:35.114Z,15.27
2023-03-20T20:49:18.024Z,15.00
2023-03-20T20:51:45.078Z,16.30
2023-03-20T20:54:11.906Z,18.70
2023-03-20T20:56:38.506Z,19.57
2023-03-20T20:59:05.031Z,16.90
2023-03-20T21:01:31.619Z,19.03
2023-03-20T21:03:58.365Z,17.83
2023-03-20T21:06:44.295Z,19.43
2023-03-20T21:09:12.515Z,19.20
2023-03-20T21:11:40.278Z,17.67
2023-03-20T21:14:06.867Z,19.40
2023-03-20T21:16:33.649Z,20.20
2023-03-20T21:19:00.495Z,20.50
2023-03-20T21:21:27.000Z,18.50
2023-03-20T21:23:53.804Z,19.30
2023-03-20T21:26:21.525Z,18.83
2023-03-20T21:28:48.383Z,19.40
2023-03-20T21:31:26.568Z,19.50
2023-03-20T21:33:55.191Z,18.87
2023-03-20T21:36:21.694Z,20.10
2023-03-20T21:41:36.344Z,18.80
2023-03-20T21:44:03.739Z,19.80
2023-03-20T21:47:05.051Z,18.20
2023-03-20T21:50:17.471Z,18.53
2023-03-20T21:52:53.805Z,19.13
2023-03-20T21:55:40.874Z,18.30
2023-03-20T21:58:17.440Z,17.03
2023-03-20T22:03:16.933Z,17.53
2023-03-20T22:06:45.700Z,18.03
2023-03-20T22:12:16.603Z,18.50
2023-03-20T22:15:03.854Z,18.10
2023-03-20T22:23:25.441Z,17.87
2023-03-20T22:31:51.686Z,16.70
2023-03-20T22:37:28.404Z,17.07
2023-03-20T22:40:10.910Z,17.97
2023-03-20T22:45:01.287Z,19.53
2023-03-20T22:47:29.867Z,19.47
2023-03-20T22:49:56.559Z,18.57
2023-03-20T22:52:32.087Z,19.80
2023-03-20T22:55:09.417Z,18.63
2023-03-20T22:57:45.485Z,18.80
2023-03-20T23:00:20.930Z,17.23
2023-03-20T23:02:47.596Z,18.70
2023-03-20T23:05:32.726Z,18.50
2023-03-20T23:08:18.265Z,18.97
2023-03-20T23:10:45.758Z,18.50
2023-03-20T23:13:12.440Z,18.30
2023-03-20T23:15:39.009Z,20.10
2023-03-20T23:18:05.940Z,18.27
2023-03-20T23:20:32.611Z,19.30
2023-03-20T23:22:59.123Z,19.90
2023-03-20T23:25:38.127Z,19.27
2023-03-20T23:28:06.706Z,18.00
2023-03-20T23:30:43.422Z,19.50
2023-03-20T23:33:11.538Z,19.67
2023-03-20T23:35:38.099Z,20.60
2023-03-20T23:38:04.564Z,19.60
2023-03-20T23:40:30.966Z,20.07
2023-03-20T23:42:57.399Z,20.13
2023-03-20T23:45:23.802Z,20.70
2023-03-20T23:47:50.847Z,19.70
2023-03-20T23:50:36.513Z,19.60
2023-03-20T23:53:19.355Z,18.67
2023-03-20T23:55:47.540Z,21.90
2023-03-20T23:58:14.040Z,19.60
